createdAt,value
2023-04-20T11:48:06.512Z,13.60
2023-04-20T11:53:09.878Z,13.60
2023-04-20T11:58:11.652Z,13.80
2023-04-20T12:03:13.696Z,14.00
2023-04-20T12:08:17.209Z,13.70
2023-04-20T12:13:19.040Z,14.00
2023-04-20T12:18:20.842Z,14.50
2023-04-20T12:23:22.664Z,14.70
2023-04-20T12:28:24.707Z,14.90
2023-04-20T12:33:26.554Z,15.20
2023-04-20T12:38:28.317Z,15.40
2023-04-20T12:43:32.360Z,15.50
2023-04-20T12:48:34.225Z,15.00
2023-04-20T12:53:35.954Z,15.10
2023-04-20T12:58:37.746Z,15.10
2023-04-20T13:03:40.136Z,15.60
2023-04-20T13:08:42.104Z,15.90
2023-04-20T13:13:44.268Z,15.60
2023-04-20T13:18:46.028Z,15.60
2023-04-20T13:23:47.705Z,15.40
2023-04-20T13:28:49.559Z,15.50
2023-04-20T13:33:54.706Z,16.00
2023-04-20T13:38:56.847Z,16.70
2023-04-20T13:44:00.634Z,17.00
2023-04-20T13:49:03.051Z,17.20
2023-04-20T13:54:04.920Z,16.80
2023-04-20T13:59:06.715Z,16.60
2023-04-20T14:04:09.838Z,16.50
2023-04-20T14:09:12.410Z,16.40
2023-04-20T14:14:14.385Z,16.20
2023-04-20T14:19:16.179Z,16.30
2023-04-20T14:24:18.155Z,16.10
2023-04-20T14:29:20.297Z,16.00
2023-04-20T14:34:22.163Z,16.20
2023-04-20T14:39:23.893Z,16.30
2023-04-20T14:44:25.659Z,16.80
2023-04-20T14:49:27.408Z,16.90
2023-04-20T14:54:30.278Z,16.60
2023-04-20T14:59:33.818Z,16.60
2023-04-20T15:04:36.084Z,16.60
2023-04-20T15:09:38.410Z,16.70
2023-04-20T15:14:40.160Z,16.70
2023-04-20T15:19:45.945Z,16.60
2023-04-20T15:24:47.659Z,16.60
2023-04-20T15:29:49.996Z,16.70
2023-04-20T15:34:51.957Z,16.70
2023-04-20T15:39:55.458Z,16.70
2023-04-20T15:44:57.209Z,16.70
2023-04-20T15:50:01.445Z,16.50
2023-04-20T15:55:03.504Z,16.30
2023-04-20T16:00:05.991Z,16.20
2023-04-20T16:05:27.992Z,16.20
2023-04-20T16:10:30.049Z,16.30
2023-04-20T16:15:31.967Z,16.10
2023-04-20T16:20:33.830Z,16.00
2023-04-20T16:25:36.403Z,16.00
2023-04-20T16:30:38.126Z,16.00
2023-04-20T16:35:40.813Z,16.10
2023-04-20T16:40:43.681Z,16.10
2023-04-20T16:45:45.979Z,16.30
2023-04-20T16:50:47.773Z,16.40
2023-04-20T16:55:49.524Z,16.40
2023-04-20T17:00:51.361Z,16.20
2023-04-20T17:05:53.146Z,16.20
2023-04-20T17:10:54.933Z,15.90
2023-04-20T17:15:56.709Z,15.90
2023-04-20T17:21:00.804Z,15.80
2023-04-20T17:26:03.563Z,15.60
2023-04-20T17:31:05.684Z,15.50
2023-04-20T17:36:07.544Z,15.40
2023-04-20T17:41:09.357Z,15.20
2023-04-20T17:46:11.524Z,15.10
2023-04-20T17:51:14.584Z,15.00
2023-04-20T17:56:16.403Z,14.90
2023-04-20T18:01:18.122Z,14.80
2023-04-20T18:06:19.985Z,14.70
2023-04-20T18:11:21.773Z,14.60
2023-04-20T18:16:23.520Z,14.60
2023-04-20T18:21:25.451Z,14.40
2023-04-20T18:26:27.476Z,14.30
2023-04-20T18:31:30.449Z,14.20
2023-04-20T18:36:32.629Z,14.20
2023-04-20T18:41:34.356Z,14.10
2023-04-20T18:46:36.086Z,14.00
2023-04-20T18:51:38.028Z,13.90
2023-04-20T18:56:40.563Z,13.80
2023-04-20T19:01:42.466Z,13.80
2023-04-20T19:06:44.286Z,13.70
2023-04-20T19:11:46.091Z,13.70
2023-04-20T19:16:48.401Z,13.70
2023-04-20T19:21:50.469Z,13.60
2023-04-20T19:26:52.404Z,13.50
2023-04-20T19:31:54.300Z,13.50
2023-04-20T19:36:56.831Z,13.40
2023-04-20T19:41:58.917Z,13.40
2023-04-20T19:47:00.763Z,13.30
2023-04-20T19:52:02.619Z,13.20
2023-04-20T19:57:04.394Z,13.20
2023-04-20T20:02:06.431Z,13.10
2023-04-20T20:07:08.367Z,13.10
2023-04-20T20:12:10.741Z,13.10
2023-04-20T20:17:13.596Z,13.00
2023-04-20T20:22:15.622Z,13.00
2023-04-20T20:27:18.079Z,13.00
2023-04-20T20:32:20.908Z,12.90
2023-04-20T20:37:22.689Z,12.90
2023-04-20T20:42:25.687Z,13.00
2023-04-20T20:47:27.604Z,12.90
2023-04-20T20:52:29.387Z,12.90
2023-04-20T20:57:31.267Z,12.80
2023-04-20T21:02:33.157Z,12.90
2023-04-20T21:07:35.022Z,12.90
2023-04-20T21:12:36.813Z,12.90
2023-04-20T21:17:38.592Z,12.80
2023-04-20T21:22:40.491Z,12.80
2023-04-20T21:27:42.287Z,12.70
2023-04-20T21:32:44.108Z,12.60
2023-04-20T21:37:45.990Z,12.60
2023-04-20T21:42:47.734Z,12.60
2023-04-20T21:47:49.514Z,12.60
2023-04-20T21:52:51.281Z,12.50
2023-04-20T21:57:53.069Z,12.60
2023-04-20T22:02:54.916Z,12.60
2023-04-20T22:07:59.822Z,12.60
2023-04-20T22:13:01.555Z,12.50
2023-04-20T22:18:05.393Z,12.50
2023-04-20T22:23:07.202Z,12.50
2023-04-20T22:28:10.127Z,12.40
2023-04-20T22:33:14.610Z,12.40
2023-04-20T22:38:16.389Z,12.30
2023-04-20T22:43:18.209Z,12.30
2023-04-20T22:48:21.282Z,12.20
2023-04-20T22:53:23.056Z,12.20
2023-04-20T22:58:24.761Z,12.20
2023-04-20T23:03:26.914Z,12.20
2023-04-20T23:08:28.759Z,12.10
2023-04-20T23:13:31.197Z,12.10
2023-04-20T23:18:34.325Z,12.00
2023-04-20T23:23:36.047Z,12.00
2023-04-20T23:28:37.831Z,12.00
2023-04-20T23:33:39.559Z,12.00
2023-04-20T23:38:41.526Z,12.00
2023-04-20T23:43:43.335Z,12.00
2023-04-20T23:48:45.091Z,12.00
2023-04-20T23:53:46.887Z,11.90
2023-04-20T23:58:48.627Z,11.90
